createdAt,value
2023-01-23T00:29:33.428Z,-102.76
2023-01-23T00:32:00.575Z,-128.00
2023-01-23T00:34:30.599Z,-128.00
2023-01-23T00:36:57.732Z,-128.00
2023-01-23T00:39:25.096Z,-128.00
2023-01-23T00:41:54.017Z,-128.00
2023-01-23T00:44:22.504Z,-128.00
2023-01-23T00:46:50.373Z,-128.00
2023-01-23T00:49:18.221Z,-128.00
2023-01-23T00:51:46.097Z,-128.00
2023-01-23T00:54:13.054Z,-128.00
2023-01-23T00:56:39.994Z,-128.00
2023-01-23T00:59:11.798Z,-128.00
2023-01-23T01:01:38.962Z,-128.00
2023-01-23T01:04:06.478Z,-128.00
2023-01-23T01:06:33.514Z,-128.00
2023-01-23T01:09:00.478Z,-128.00
2023-01-23T01:11:27.376Z,-128.00
2023-01-23T01:13:54.303Z,-128.00
2023-01-23T01:16:21.284Z,-128.00
2023-01-23T01:18:48.215Z,-128.00
2023-01-23T01:21:15.162Z,-128.00
2023-01-23T01:23:42.158Z,-128.00
2023-01-23T01:26:09.196Z,-128.00
2023-01-23T01:28:37.050Z,-128.00
2023-01-23T01:31:12.975Z,-128.00
2023-01-23T01:33:40.220Z,-128.00
2023-01-23T01:36:15.423Z,-128.00
2023-01-23T01:38:42.591Z,-128.00
2023-01-23T01:41:10.052Z,-128.00
2023-01-23T01:43:37.073Z,-128.00
2023-01-23T01:46:13.445Z,-128.00
2023-01-23T01:48:48.228Z,-128.00
2023-01-23T01:51:50.698Z,-128.00
2023-01-23T01:54:40.606Z,-128.00
2023-01-23T01:57:13.599Z,-128.00
2023-01-23T02:00:10.418Z,-128.00
2023-01-23T02:02:51.340Z,-128.00
2023-01-23T02:05:23.876Z,-128.00
2023-01-23T02:07:57.609Z,-128.00
2023-01-23T02:10:24.686Z,-128.00
2023-01-23T02:12:52.069Z,-128.00
2023-01-23T02:15:20.340Z,-128.00
2023-01-23T02:17:48.493Z,-128.00
2023-01-23T02:20:24.787Z,-128.00
2023-01-23T02:22:59.529Z,-128.00
2023-01-23T02:25:44.811Z,-128.00
2023-01-23T02:28:15.913Z,-128.00
2023-01-23T02:30:43.709Z,-128.00
2023-01-23T02:33:30.913Z,-128.00
2023-01-23T02:35:59.232Z,-128.00
2023-01-23T02:38:31.599Z,-128.00
2023-01-23T02:41:01.057Z,-128.00
2023-01-23T02:43:34.763Z,-128.00
2023-01-23T02:46:03.621Z,-128.00
2023-01-23T02:48:30.675Z,-128.00
2023-01-23T02:50:58.944Z,-128.00
2023-01-23T02:53:27.061Z,-128.00
2023-01-23T02:55:54.198Z,-128.00
2023-01-23T02:58:40.967Z,-128.00
2023-01-23T10:31:44.519Z,-25.56
2023-01-23T10:34:19.953Z,-128.00
2023-01-23T10:37:05.635Z,-128.00
2023-01-23T10:40:02.876Z,-128.00
2023-01-23T10:42:29.783Z,-128.00
2023-01-23T10:44:56.738Z,-128.00
2023-01-23T10:47:33.137Z,-128.00
2023-01-23T10:50:01.415Z,-128.00
2023-01-23T10:52:29.525Z,-128.00
2023-01-23T10:54:56.426Z,-128.00
2023-01-23T10:57:31.265Z,-128.00
2023-01-23T11:00:04.801Z,-128.00
2023-01-23T11:02:33.763Z,-128.00
2023-01-23T11:05:01.136Z,-128.00
2023-01-23T15:54:53.615Z,-0.88
2023-01-23T15:57:21.622Z,-0.59
2023-01-23T15:59:48.940Z,-0.41
2023-01-23T16:02:34.431Z,-0.24
2023-01-23T16:05:02.929Z,-51.27
2023-01-23T16:07:34.980Z,-128.00
2023-01-23T16:10:17.804Z,-128.00
2023-01-23T16:12:48.237Z,-128.00
2023-01-23T19:23:57.957Z,-0.93
2023-01-23T19:26:35.114Z,-0.73
2023-01-23T19:29:19.538Z,-0.61
2023-01-23T19:32:02.927Z,-0.47
